X  CloseMetar Aviation Weather Data     LIRA Ciampino–G. B. Pastine International

Temperatura

11°C Temperatura

9°C Punto di rugiada

88% Umidità



Vento

 8 KM/H

 5 MPH

 2 M/S

 4 KTS



150°
Sud Sud
Est
Condizioni attuali

Parzialmente nuvoloso Parzialmente nuvoloso
Pressione atmosferica 1022.92 (hPa) - 30.21 (in)
Visibilità 5.6 (mi) - 9 (km)
Aeroporto
Airport-code LIRA

Posizione Ciampino–G. B. Pastine International 48 (km)

Metar:
LIRA 182220Z 15004KT 9000 FEW025 11/09 Q1023

Ore: 18-02-2020 23:20